Kezdőlap
METAR-TAF:

METAR-TAF

Repülőterek :

Henri Coandă nemzetközi repülőtér

Bukarest, Románia

földrajzi szélesség: 44-33N, földrajzi hosszúság: 026-06E, magasság: 95 m

Jelenlegi meteorológiai megfigyelések

A jelentés 23 perccel ezelõtt készült, 04:00 UTC
Észak-északkeleti szél 4 kt
Hőmérséklet 11°C
Páratartalom 94%
Légköri nyomás 1022 hPa
Látótávolság 10 km, vagy több
felhőtlen 1500 m magasságban, és nincs gomolyfelhõ

METAR: LROP 200400Z 02004KT CAVOK 11/10 Q1022 NOSIG

Idő: 07:23 (04:23 UTC)

Előrejelzés

A jelentés 5 órával és 23 perccel ezelõtt készült, 23:00 UTC
Az előrejelzés 20-én 00 óra UTC és 20-én 24 óra UTC között érvényes
Különbözõ irányokból fújó szél 4 kt
Látótávolság 10 km, vagy több
felhőtlen 1500 m magasságban, és nincs gomolyfelhõ
20-én 00 óra UTC és 20-én 05 óra UTC között ideiglenes
Látótávolság: 3000 m
Párásság

TAF: LROP 192300Z 2000/2024 VRB04KT CAVOK TEMPO 2000/2005 3000 BR

Meteorológiai megfigyelések és előrejelzések több, mint 4000 repülőtéren (METAR és TAF jelentéseket).

A térképen piros és sárga pontok jelzik az elérhető meteorológiai állomásokat.

Mozgassa az egeret a pont fölött, hogy megjelenjen az állomás neve.

Azután kattintson az időjárási megfigyelések és előrejelzések megtekintéséhez.

A térkép megváltoztatása: kattintson a fekete keresztel jelölt zöld gombra ráközelítéshez, a vonallal jelölt zöld gombra távolításhoz, vagy a zöld nyilakra a szomszédos térképek eléréséhez.


METAR-TAF: